createdAt,value
2018-04-22T00:01:26.547Z,9.13
2018-04-22T00:03:54.078Z,9.11
2018-04-22T00:06:21.642Z,9.04
2018-04-22T00:08:49.681Z,8.98
2018-04-22T00:11:17.250Z,8.94
2018-04-22T00:13:45.494Z,8.90
2018-04-22T00:16:14.834Z,8.86
2018-04-22T00:18:43.421Z,8.82
2018-04-22T00:21:10.995Z,8.80
2018-04-22T00:23:38.605Z,8.77
2018-04-22T00:26:06.132Z,8.76
2018-04-22T00:28:33.672Z,8.73
2018-04-22T00:31:01.678Z,8.70
2018-04-22T00:33:29.877Z,8.66
2018-04-22T00:35:57.984Z,8.64
2018-04-22T00:38:25.603Z,8.60
2018-04-22T00:40:53.563Z,8.57
2018-04-22T00:43:22.037Z,8.56
2018-04-22T00:45:49.568Z,8.52
2018-04-22T00:48:17.840Z,8.49
2018-04-22T00:50:45.443Z,8.46
2018-04-22T00:53:13.966Z,8.45
2018-04-22T00:55:41.487Z,8.45
2018-04-22T00:58:09.007Z,8.43
2018-04-22T01:00:36.593Z,8.40
2018-04-22T01:03:05.071Z,8.35
2018-04-22T01:05:33.173Z,8.31
2018-04-22T01:08:00.712Z,8.29
2018-04-22T01:10:28.247Z,8.29
2018-04-22T01:12:57.206Z,8.26
2018-04-22T01:15:25.515Z,8.21
2018-04-22T01:17:53.089Z,8.14
2018-04-22T01:20:21.346Z,8.07
2018-04-22T01:22:48.943Z,8.01
2018-04-22T01:25:16.479Z,8.00
2018-04-22T01:27:44.858Z,7.99
2018-04-22T01:30:13.619Z,7.96
2018-04-22T01:32:41.152Z,7.91
2018-04-22T01:35:09.925Z,7.88
2018-04-22T01:37:37.933Z,7.84
2018-04-22T01:40:06.035Z,7.83
2018-04-22T01:42:33.979Z,7.82
2018-04-22T01:45:01.511Z,7.77
2018-04-22T01:47:29.788Z,7.69
2018-04-22T01:49:57.338Z,7.66
2018-04-22T01:52:26.954Z,7.61
2018-04-22T01:54:55.258Z,7.61
2018-04-22T01:57:22.786Z,7.56
2018-04-22T01:59:50.329Z,7.53
2018-04-22T02:02:17.975Z,7.51
2018-04-22T02:04:45.491Z,7.48
2018-04-22T02:07:13.850Z,7.45
2018-04-22T02:09:41.383Z,7.42
2018-04-22T02:12:08.994Z,7.37
2018-04-22T02:14:37.348Z,7.32
2018-04-22T02:17:04.904Z,7.23
2018-04-22T02:19:32.439Z,7.20
2018-04-22T02:21:59.995Z,7.16
2018-04-22T02:24:27.514Z,7.12
2018-04-22T02:26:55.553Z,7.09
2018-04-22T02:29:23.831Z,7.03
2018-04-22T02:31:51.363Z,7.00
2018-04-22T02:34:19.047Z,6.97
2018-04-22T02:36:46.612Z,6.91
2018-04-22T02:39:14.346Z,6.87
2018-04-22T02:41:42.959Z,6.82
2018-04-22T02:44:10.593Z,6.78
2018-04-22T02:46:38.129Z,6.73
2018-04-22T02:49:06.577Z,6.72
2018-04-22T02:51:34.834Z,6.69
2018-04-22T02:54:02.367Z,6.68
2018-04-22T02:56:29.924Z,6.68
2018-04-22T02:58:57.482Z,6.66
2018-04-22T03:01:25.013Z,6.65
2018-04-22T03:03:52.555Z,6.62
2018-04-22T03:06:20.107Z,6.56
2018-04-22T03:08:47.647Z,6.55
2018-04-22T03:11:15.321Z,6.49
2018-04-22T03:13:43.840Z,6.44
2018-04-22T03:16:11.359Z,6.39
2018-04-22T03:18:38.878Z,6.35
2018-04-22T03:21:06.455Z,6.33
2018-04-22T03:23:33.979Z,6.31
2018-04-22T03:26:02.093Z,6.31
2018-04-22T03:28:29.624Z,6.27
2018-04-22T03:30:57.155Z,6.25
2018-04-22T03:33:24.751Z,6.22
2018-04-22T03:35:52.323Z,6.19
2018-04-22T03:38:20.740Z,6.21
2018-04-22T03:40:49.696Z,6.21
2018-04-22T03:43:17.734Z,6.29
2018-04-22T03:45:45.906Z,6.46
2018-04-22T03:48:14.816Z,6.56
2018-04-22T03:50:43.038Z,6.59
2018-04-22T03:53:11.355Z,6.64
2018-04-22T03:55:38.891Z,6.65
2018-04-22T03:58:06.442Z,6.66
2018-04-22T04:00:34.007Z,6.70
2018-04-22T04:03:01.526Z,6.74
2018-04-22T04:05:29.067Z,6.73
2018-04-22T04:07:56.675Z,6.77
2018-04-22T04:10:24.195Z,6.78
2018-04-22T04:12:52.771Z,6.79
2018-04-22T04:15:20.304Z,6.81
2018-04-22T04:21:15.591Z,6.83
2018-04-22T04:27:12.968Z,6.93
2018-04-22T04:29:40.526Z,7.01
2018-04-22T04:32:08.117Z,7.06
2018-04-22T04:34:35.663Z,7.11
2018-04-22T04:37:03.179Z,7.14
2018-04-22T04:39:30.698Z,7.19
2018-04-22T04:41:59.123Z,7.26
2018-04-22T04:44:27.242Z,7.30
2018-04-22T04:46:54.881Z,7.38
2018-04-22T04:49:23.311Z,7.45
2018-04-22T04:51:51.511Z,7.48
2018-04-22T04:54:19.155Z,7.47
2018-04-22T04:56:46.716Z,7.50
2018-04-22T04:59:14.430Z,7.54
2018-04-22T05:01:41.957Z,7.62
2018-04-22T05:04:09.628Z,7.68
2018-04-22T05:06:37.213Z,7.75
2018-04-22T05:09:05.436Z,7.81
2018-04-22T05:11:32.963Z,7.88
2018-04-22T05:14:01.472Z,7.97
2018-04-22T05:16:28.999Z,8.05
2018-04-22T05:18:56.626Z,8.14
2018-04-22T05:21:24.303Z,8.20
2018-04-22T05:23:52.447Z,8.28
2018-04-22T05:26:20.687Z,8.32
2018-04-22T05:28:48.210Z,8.42
2018-04-22T05:31:15.818Z,8.48
2018-04-22T05:33:43.539Z,8.54
2018-04-22T05:36:11.281Z,8.65
2018-04-22T05:38:38.807Z,8.75
2018-04-22T05:41:06.879Z,8.86
2018-04-22T05:43:35.182Z,8.96
2018-04-22T05:46:02.713Z,9.03
2018-04-22T05:48:31.216Z,9.15
2018-04-22T05:50:59.333Z,9.21
2018-04-22T05:53:27.431Z,9.28
2018-04-22T05:55:55.044Z,9.41
2018-04-22T05:58:22.628Z,9.49
2018-04-22T06:00:50.324Z,9.54
2018-04-22T06:03:17.865Z,9.58
2018-04-22T06:05:45.390Z,9.64
2018-04-22T06:08:13.212Z,9.72
2018-04-22T06:10:40.733Z,9.86
2018-04-22T06:13:09.359Z,9.96
2018-04-22T06:15:36.883Z,10.14
2018-04-22T06:18:04.440Z,10.28
2018-04-22T06:20:32.008Z,10.45
2018-04-22T06:23:00.327Z,10.52
2018-04-22T06:25:27.882Z,10.64
2018-04-22T06:27:56.573Z,10.78
2018-04-22T06:30:24.111Z,10.87
2018-04-22T06:32:51.635Z,10.94
2018-04-22T06:35:19.207Z,11.01
2018-04-22T06:37:46.753Z,11.12
2018-04-22T06:40:15.037Z,11.13
2018-04-22T06:42:43.113Z,11.19
2018-04-22T06:45:10.642Z,11.30
2018-04-22T06:47:38.935Z,11.38
2018-04-22T06:50:07.253Z,11.43
2018-04-22T06:52:36.361Z,11.48
2018-04-22T06:55:03.915Z,11.53
2018-04-22T06:57:31.473Z,11.59
2018-04-22T06:59:59.053Z,11.67
2018-04-22T07:02:26.715Z,11.72
2018-04-22T07:04:54.369Z,11.76
2018-04-22T07:07:21.988Z,11.79
2018-04-22T07:09:50.145Z,11.70
2018-04-22T07:12:17.706Z,11.75
2018-04-22T07:14:46.076Z,11.79
2018-04-22T07:17:13.754Z,11.91
2018-04-22T07:19:41.290Z,11.92
2018-04-22T07:22:08.858Z,11.89
2018-04-22T07:24:37.292Z,11.88
2018-04-22T07:27:05.460Z,11.93
2018-04-22T07:29:32.995Z,11.97
2018-04-22T07:32:01.096Z,12.03
2018-04-22T07:34:28.643Z,12.05
2018-04-22T07:36:56.595Z,12.14
2018-04-22T07:39:24.362Z,12.22
2018-04-22T07:41:52.456Z,12.41
2018-04-22T07:44:20.007Z,12.56
2018-04-22T07:46:47.528Z,12.59
2018-04-22T07:49:16.012Z,12.63
2018-04-22T07:51:44.434Z,12.61
2018-04-22T07:54:11.976Z,12.72
2018-04-22T07:56:39.544Z,12.92
2018-04-22T07:59:07.142Z,13.02
2018-04-22T08:01:35.174Z,13.11
2018-04-22T08:04:02.735Z,13.11
2018-04-22T08:06:30.260Z,13.22
2018-04-22T08:08:57.814Z,13.33
2018-04-22T08:11:25.353Z,13.38
2018-04-22T08:13:53.430Z,13.45
2018-04-22T08:16:21.006Z,13.61
2018-04-22T08:18:48.535Z,13.73
2018-04-22T08:21:16.133Z,13.81
2018-04-22T08:23:43.688Z,13.94
2018-04-22T08:26:12.250Z,13.89
2018-04-22T08:28:39.843Z,13.93
2018-04-22T08:31:07.935Z,13.99
2018-04-22T08:33:36.119Z,14.14
2018-04-22T08:36:03.656Z,14.26
2018-04-22T08:38:31.949Z,14.37
2018-04-22T08:41:00.016Z,14.52
2018-04-22T08:43:28.314Z,14.52
2018-04-22T08:45:56.023Z,14.50
2018-04-22T08:48:24.139Z,14.52
2018-04-22T08:50:52.268Z,14.58
2018-04-22T08:53:20.166Z,14.53
2018-04-22T08:55:47.717Z,14.42
2018-04-22T08:58:15.243Z,14.46
2018-04-22T09:00:43.453Z,14.53
2018-04-22T09:03:11.759Z,14.55
2018-04-22T09:05:39.412Z,14.53
2018-04-22T09:08:06.964Z,14.50
2018-04-22T09:10:34.757Z,14.59
2018-04-22T09:13:02.907Z,14.65
2018-04-22T09:15:30.430Z,14.69
2018-04-22T09:17:57.970Z,14.79
2018-04-22T09:20:25.626Z,14.82
2018-04-22T09:22:53.163Z,14.80
2018-04-22T09:25:20.694Z,14.86
2018-04-22T09:27:49.168Z,14.94
2018-04-22T09:30:16.701Z,15.06
2018-04-22T09:32:44.715Z,15.15
2018-04-22T09:35:12.908Z,15.29
2018-04-22T09:37:40.449Z,15.42
2018-04-22T09:40:07.988Z,15.58
2018-04-22T09:42:36.219Z,15.57
2018-04-22T09:45:03.779Z,15.59
2018-04-22T09:47:32.426Z,15.51
2018-04-22T09:50:00.297Z,15.59
2018-04-22T09:52:28.672Z,15.76
2018-04-22T09:54:56.376Z,15.94
2018-04-22T09:57:23.906Z,15.98
2018-04-22T09:59:51.467Z,16.09
2018-04-22T10:02:24.681Z,16.18
2018-04-22T10:04:53.147Z,16.09
2018-04-22T10:07:20.671Z,15.96
2018-04-22T10:09:48.201Z,15.93
2018-04-22T10:12:15.762Z,15.96
2018-04-22T10:14:44.121Z,16.01
2018-04-22T10:17:11.651Z,16.09
2018-04-22T10:19:39.189Z,16.14
2018-04-22T10:22:06.810Z,16.30
2018-04-22T10:24:34.343Z,16.38
2018-04-22T10:27:02.485Z,16.37
2018-04-22T10:29:30.939Z,16.38
2018-04-22T10:31:59.450Z,16.40
2018-04-22T10:34:27.107Z,16.43
2018-04-22T10:36:56.073Z,16.42
2018-04-22T10:39:24.681Z,16.43
2018-04-22T10:41:53.306Z,16.51
2018-04-22T10:44:20.825Z,16.54
2018-04-22T10:46:48.415Z,16.62
2018-04-22T10:49:16.882Z,16.62
2018-04-22T10:51:45.062Z,16.57
2018-04-22T10:54:12.654Z,16.52
2018-04-22T10:56:40.896Z,16.61
2018-04-22T10:59:08.509Z,16.74
2018-04-22T11:01:36.015Z,16.75
2018-04-22T11:04:03.590Z,16.84
2018-04-22T11:06:31.131Z,16.79
2018-04-22T11:08:59.508Z,16.79
2018-04-22T11:11:27.100Z,16.85
2018-04-22T11:13:55.055Z,16.90
2018-04-22T11:16:22.596Z,16.86
2018-04-22T11:18:50.319Z,16.84
2018-04-22T11:21:17.894Z,16.84
2018-04-22T11:23:45.548Z,16.92
2018-04-22T11:26:13.826Z,17.01
2018-04-22T11:28:42.759Z,17.01
2018-04-22T11:31:10.315Z,17.06
2018-04-22T11:33:37.955Z,17.10
2018-04-22T11:36:05.509Z,17.09
2018-04-22T11:38:33.038Z,17.09
2018-04-22T11:41:01.147Z,17.15
2018-04-22T11:43:28.850Z,17.22
2018-04-22T11:45:56.370Z,17.38
2018-04-22T11:48:24.642Z,17.55
2018-04-22T11:50:52.831Z,17.73
2018-04-22T11:53:20.918Z,17.80
2018-04-22T11:55:48.445Z,17.85
2018-04-22T11:58:15.978Z,17.80
2018-04-22T12:00:45.332Z,17.74
2018-04-22T12:03:13.194Z,17.73
2018-04-22T12:05:40.906Z,17.74
2018-04-22T12:08:09.182Z,17.80
2018-04-22T12:10:36.710Z,17.87
2018-04-22T12:13:05.163Z,17.89
2018-04-22T12:15:32.727Z,17.91
2018-04-22T12:18:00.263Z,17.97
2018-04-22T12:20:28.066Z,18.01
2018-04-22T12:22:55.595Z,18.15
2018-04-22T12:25:23.970Z,18.25
2018-04-22T12:27:52.450Z,18.23
2018-04-22T12:30:19.975Z,18.14
2018-04-22T12:32:47.516Z,18.18
2018-04-22T12:35:15.111Z,18.12
2018-04-22T12:37:43.052Z,18.08
2018-04-22T12:40:10.728Z,18.17
2018-04-22T12:42:38.792Z,18.15
2018-04-22T12:45:06.326Z,18.16
2018-04-22T12:47:34.418Z,18.25
2018-04-22T12:50:02.871Z,18.38
2018-04-22T12:52:31.234Z,18.49
2018-04-22T12:54:58.980Z,18.58
2018-04-22T12:57:26.507Z,18.65
2018-04-22T12:59:54.732Z,18.46
2018-04-22T13:02:22.266Z,18.35
2018-04-22T13:04:49.809Z,18.30
2018-04-22T13:07:17.379Z,18.30
2018-04-22T13:09:45.486Z,18.39
2018-04-22T13:12:13.675Z,18.48
2018-04-22T13:14:41.757Z,18.62
2018-04-22T13:17:09.320Z,18.69
2018-04-22T13:19:36.906Z,18.74
2018-04-22T13:22:05.322Z,18.79
2018-04-22T13:24:32.867Z,18.82
2018-04-22T13:27:01.164Z,18.72
2018-04-22T13:29:29.503Z,18.69
2018-04-22T13:31:57.097Z,18.72
2018-04-22T13:34:24.665Z,18.64
2018-04-22T13:36:52.200Z,18.63
2018-04-22T13:39:19.724Z,18.62
2018-04-22T13:41:48.009Z,18.64
2018-04-22T13:44:15.535Z,18.61
2018-04-22T13:46:43.712Z,18.58
2018-04-22T13:49:11.886Z,18.49
2018-04-22T13:51:40.035Z,18.39
2018-04-22T13:54:07.574Z,18.36
2018-04-22T13:56:35.129Z,18.31
2018-04-22T13:59:02.698Z,18.29
2018-04-22T14:01:30.227Z,18.33
2018-04-22T14:03:57.821Z,18.40
2018-04-22T14:06:26.254Z,18.55
2018-04-22T14:08:54.384Z,18.69
2018-04-22T14:11:21.948Z,18.83
2018-04-22T14:13:49.882Z,18.97
2018-04-22T14:16:17.409Z,18.98
2018-04-22T14:18:44.952Z,18.99
2018-04-22T14:21:13.123Z,19.01
2018-04-22T14:23:40.650Z,19.02
2018-04-22T14:26:08.746Z,19.02
2018-04-22T14:28:36.349Z,19.08
2018-04-22T14:31:03.931Z,19.07
2018-04-22T14:33:31.526Z,19.11
2018-04-22T14:35:59.279Z,19.11
2018-04-22T14:38:26.860Z,19.11
2018-04-22T14:40:55.225Z,19.08
2018-04-22T14:43:22.747Z,19.06
2018-04-22T14:46:02.125Z,19.11
2018-04-22T14:48:30.374Z,19.07
2018-04-22T14:50:58.703Z,19.10
2018-04-22T14:53:27.000Z,19.13
2018-04-22T14:55:54.530Z,19.12
2018-04-22T14:58:22.063Z,19.08
2018-04-22T15:00:50.379Z,18.95
2018-04-22T15:03:17.910Z,18.87
2018-04-22T15:05:46.242Z,18.83
2018-04-22T15:08:14.354Z,18.78
2018-04-22T15:10:41.898Z,18.80
2018-04-22T15:13:10.087Z,18.83
2018-04-22T15:15:37.623Z,18.82
2018-04-22T15:18:05.758Z,18.83
2018-04-22T15:20:33.308Z,18.89
2018-04-22T15:23:01.774Z,18.88
2018-04-22T15:25:29.436Z,18.85
2018-04-22T15:27:57.529Z,18.89
2018-04-22T15:30:25.105Z,19.00
2018-04-22T15:32:52.639Z,19.03
2018-04-22T15:35:20.194Z,19.20
2018-04-22T15:37:47.735Z,19.38
2018-04-22T15:40:15.259Z,19.63
2018-04-22T15:42:43.603Z,19.87
2018-04-22T15:45:11.200Z,20.29
2018-04-22T15:47:39.852Z,20.70
2018-04-22T15:50:07.982Z,21.25
2018-04-22T15:52:35.875Z,21.90
2018-04-22T15:55:04.227Z,22.49
2018-04-22T15:57:31.805Z,23.05
2018-04-22T16:00:00.055Z,23.25
2018-04-22T16:02:27.642Z,23.76
2018-04-22T16:04:56.001Z,24.21
2018-04-22T16:07:23.549Z,24.63
2018-04-22T16:09:51.500Z,24.76
2018-04-22T16:12:19.279Z,24.97
2018-04-22T16:14:47.361Z,25.24
2018-04-22T16:17:14.942Z,25.44
2018-04-22T16:19:43.113Z,25.63
2018-04-22T16:22:10.684Z,25.74
2018-04-22T16:24:38.220Z,25.48
2018-04-22T16:27:07.085Z,25.60
2018-04-22T16:29:34.615Z,25.86
2018-04-22T16:32:02.159Z,25.77
2018-04-22T16:34:29.868Z,25.85
2018-04-22T16:36:57.407Z,25.88
2018-04-22T16:39:24.983Z,25.98
2018-04-22T16:41:53.257Z,26.12
2018-04-22T16:44:20.791Z,26.12
2018-04-22T16:46:48.334Z,26.19
2018-04-22T16:49:16.827Z,26.14
2018-04-22T16:51:45.116Z,26.30
2018-04-22T16:54:13.427Z,26.36
2018-04-22T16:56:40.971Z,26.22
2018-04-22T16:59:09.028Z,26.17
2018-04-22T17:01:36.579Z,25.79
2018-04-22T17:04:04.112Z,25.40
2018-04-22T17:06:32.452Z,24.90
2018-04-22T17:09:00.794Z,24.47
2018-04-22T17:11:28.391Z,24.25
2018-04-22T17:13:56.696Z,24.02
2018-04-22T17:16:24.218Z,23.79
2018-04-22T17:18:51.783Z,23.68
2018-04-22T17:21:19.339Z,23.71
2018-04-22T17:23:46.870Z,23.59
2018-04-22T17:26:15.832Z,23.49
2018-04-22T17:28:43.773Z,23.27
2018-04-22T17:31:11.356Z,22.95
2018-04-22T17:33:39.039Z,22.76
2018-04-22T17:36:06.567Z,22.63
2018-04-22T17:38:34.692Z,22.53
2018-04-22T17:41:02.892Z,22.33
2018-04-22T17:43:30.420Z,22.09
2018-04-22T17:45:58.641Z,21.82
2018-04-22T17:48:26.715Z,21.46
2018-04-22T17:50:55.023Z,20.97
2018-04-22T17:53:23.325Z,20.54
2018-04-22T17:55:51.604Z,20.14
2018-04-22T17:58:19.865Z,19.82
2018-04-22T18:00:47.444Z,19.49
2018-04-22T18:03:15.096Z,19.19
2018-04-22T18:05:43.623Z,18.78
2018-04-22T18:08:11.835Z,18.37
2018-04-22T18:10:39.984Z,17.94
2018-04-22T18:13:08.335Z,17.54
2018-04-22T18:15:35.862Z,17.15
2018-04-22T18:18:03.403Z,16.83
2018-04-22T18:20:30.982Z,16.55
2018-04-22T18:22:58.710Z,16.27
2018-04-22T18:25:26.256Z,15.98
2018-04-22T18:27:54.291Z,15.74
2018-04-22T18:30:21.896Z,15.50
2018-04-22T18:32:49.425Z,15.35
2018-04-22T18:35:17.176Z,15.15
2018-04-22T18:37:44.827Z,14.98
2018-04-22T18:40:13.671Z,14.81
2018-04-22T18:42:42.027Z,14.67
2018-04-22T18:45:09.568Z,14.52
2018-04-22T18:47:37.571Z,14.40
2018-04-22T18:50:05.738Z,14.27
2018-04-22T18:52:33.807Z,14.17
2018-04-22T18:55:02.019Z,14.06
2018-04-22T18:57:29.586Z,13.97
2018-04-22T18:59:57.917Z,13.87
2018-04-22T19:02:25.451Z,13.80
2018-04-22T19:04:53.838Z,13.69
2018-04-22T19:07:22.195Z,13.61
2018-04-22T19:09:50.176Z,13.51
2018-04-22T19:12:17.714Z,13.40
2018-04-22T19:14:45.783Z,13.31
2018-04-22T19:17:14.268Z,13.25
2018-04-22T19:19:41.832Z,13.21
2018-04-22T19:22:09.354Z,13.16
2018-04-22T19:24:38.274Z,13.11
2018-04-22T19:27:06.142Z,13.04
2018-04-22T19:29:33.687Z,12.96
2018-04-22T19:32:01.217Z,12.90
2018-04-22T19:34:28.803Z,12.84
2018-04-22T19:36:56.327Z,12.79
2018-04-22T19:39:23.860Z,12.73
2018-04-22T19:41:52.559Z,12.68
2018-04-22T19:44:20.095Z,12.61
2018-04-22T19:46:47.783Z,12.53
2018-04-22T19:49:16.144Z,12.48
2018-04-22T19:51:44.518Z,12.41
2018-04-22T19:54:12.710Z,12.33
2018-04-22T19:56:40.358Z,12.29
2018-04-22T19:59:07.927Z,12.25
2018-04-22T20:01:35.516Z,12.18
2018-04-22T20:04:03.055Z,12.15
2018-04-22T20:06:31.280Z,12.10
2018-04-22T20:08:58.851Z,12.07
2018-04-22T20:11:26.382Z,12.01
2018-04-22T20:13:54.922Z,11.97
2018-04-22T20:16:22.453Z,11.93
2018-04-22T20:18:49.999Z,11.88
2018-04-22T20:21:17.554Z,11.84
2018-04-22T20:23:45.091Z,11.80
2018-04-22T20:26:13.602Z,11.76
2018-04-22T20:28:41.286Z,11.70
2018-04-22T20:31:08.819Z,11.68
2018-04-22T20:33:36.421Z,11.62
2018-04-22T20:36:03.954Z,11.57
2018-04-22T20:38:31.516Z,11.52
2018-04-22T20:40:59.767Z,11.46
2018-04-22T20:43:27.286Z,11.41
2018-04-22T20:45:54.846Z,11.32
2018-04-22T20:48:23.107Z,11.24
2018-04-22T20:50:51.144Z,11.18
2018-04-22T20:53:19.346Z,11.14
2018-04-22T20:55:47.255Z,11.10
2018-04-22T20:58:15.787Z,11.07
2018-04-22T21:00:43.459Z,11.04
2018-04-22T21:03:11.490Z,10.99
2018-04-22T21:05:39.730Z,10.97
2018-04-22T21:08:08.039Z,10.94
2018-04-22T21:10:35.593Z,10.93
2018-04-22T21:13:04.131Z,10.90
2018-04-22T21:15:31.658Z,10.87
2018-04-22T21:18:00.049Z,10.85
2018-04-22T21:20:27.585Z,10.80
2018-04-22T21:22:55.134Z,10.77
2018-04-22T21:25:22.698Z,10.75
2018-04-22T21:27:50.957Z,10.71
2018-04-22T21:30:18.509Z,10.66
2018-04-22T21:32:46.047Z,10.65
2018-04-22T21:35:13.754Z,10.63
2018-04-22T21:37:41.295Z,10.62
2018-04-22T21:40:08.829Z,10.59
2018-04-22T21:42:36.883Z,10.56
2018-04-22T21:45:04.442Z,10.53
2018-04-22T21:47:32.685Z,10.53
2018-04-22T21:50:00.989Z,10.50
2018-04-22T21:52:29.287Z,10.50
2018-04-22T21:54:57.443Z,10.50
2018-04-22T21:57:25.034Z,10.48
2018-04-22T21:59:52.578Z,10.48
2018-04-22T22:02:20.723Z,10.47
2018-04-22T22:04:49.115Z,10.43
2018-04-22T22:07:16.648Z,10.40
2018-04-22T22:09:44.407Z,10.38
2018-04-22T22:12:11.963Z,10.33
2018-04-22T22:14:40.311Z,10.27
2018-04-22T22:17:07.850Z,10.24
2018-04-22T22:19:35.600Z,10.22
2018-04-22T22:22:03.252Z,10.21
2018-04-22T22:24:30.857Z,10.18
2018-04-22T22:26:59.267Z,10.16
2018-04-22T22:29:26.794Z,10.11
2018-04-22T22:31:54.349Z,10.09
2018-04-22T22:34:21.922Z,10.09
2018-04-22T22:36:50.319Z,10.06
2018-04-22T22:39:17.858Z,10.06
2018-04-22T22:41:46.136Z,10.03
2018-04-22T22:44:13.818Z,10.00
2018-04-22T22:46:41.409Z,9.96
2018-04-22T22:49:09.632Z,9.93
2018-04-22T22:51:37.978Z,9.93
2018-04-22T22:54:06.267Z,9.92
2018-04-22T22:56:33.786Z,9.91
2018-04-22T22:59:01.983Z,9.91
2018-04-22T23:01:29.526Z,9.92
2018-04-22T23:03:57.094Z,9.92
2018-04-22T23:06:25.160Z,9.90
2018-04-22T23:08:52.723Z,9.87
2018-04-22T23:11:20.277Z,9.86
2018-04-22T23:13:48.790Z,9.87
2018-04-22T23:16:16.323Z,9.85
2018-04-22T23:18:44.005Z,9.83
2018-04-22T23:21:11.565Z,9.81
2018-04-22T23:23:39.101Z,9.78
2018-04-22T23:26:07.935Z,9.78
2018-04-22T23:28:35.492Z,9.77
2018-04-22T23:31:03.113Z,9.75
2018-04-22T23:33:30.712Z,9.75
2018-04-22T23:35:58.419Z,9.74
2018-04-22T23:38:25.963Z,9.73
2018-04-22T23:40:54.270Z,9.72
2018-04-22T23:43:21.802Z,9.71
2018-04-22T23:45:49.337Z,9.70
2018-04-22T23:48:17.764Z,9.69
2018-04-22T23:50:46.068Z,9.67
2018-04-22T23:53:14.357Z,9.64
2018-04-22T23:55:42.512Z,9.62
2018-04-22T23:58:10.051Z,9.61
